sensor_id;sensor_type;location;lat;lon;timestamp;P1;durP1;ratioP1;P2;durP2;ratioP2
19004;SDS011;9635;52.078;8.648;2023-05-27T00:02:46;17.20;;;5.78;;
19004;SDS011;9635;52.078;8.648;2023-05-27T00:07:50;18.75;;;5.97;;
19004;SDS011;9635;52.078;8.648;2023-05-27T00:12:53;18.90;;;5.10;;
19004;SDS011;9635;52.078;8.648;2023-05-27T00:17:57;12.07;;;5.25;;
19004;SDS011;9635;52.078;8.648;2023-05-27T00:23:02;17.65;;;5.95;;
19004;SDS011;9635;52.078;8.648;2023-05-27T00:28:05;23.00;;;6.80;;
19004;SDS011;9635;52.078;8.648;2023-05-27T00:33:08;20.75;;;6.50;;
19004;SDS011;9635;52.078;8.648;2023-05-27T00:38:13;14.70;;;5.70;;
19004;SDS011;9635;52.078;8.648;2023-05-27T00:43:16;18.95;;;6.07;;
19004;SDS011;9635;52.078;8.648;2023-05-27T00:48:19;23.15;;;6.32;;
19004;SDS011;9635;52.078;8.648;2023-05-27T00:53:24;15.18;;;5.82;;
19004;SDS011;9635;52.078;8.648;2023-05-27T00:58:27;17.95;;;5.07;;
19004;SDS011;9635;52.078;8.648;2023-05-27T01:03:31;14.05;;;6.00;;
19004;SDS011;9635;52.078;8.648;2023-05-27T01:08:46;16.35;;;5.00;;
19004;SDS011;9635;52.078;8.648;2023-05-27T01:14:03;19.30;;;5.53;;
19004;SDS011;9635;52.078;8.648;2023-05-27T01:19:12;14.13;;;4.90;;
19004;SDS011;9635;52.078;8.648;2023-05-27T01:24:19;18.67;;;6.38;;
19004;SDS011;9635;52.078;8.648;2023-05-27T01:29:22;22.30;;;7.72;;
19004;SDS011;9635;52.078;8.648;2023-05-27T01:34:26;23.70;;;6.68;;
19004;SDS011;9635;52.078;8.648;2023-05-27T01:39:40;23.20;;;6.20;;
19004;SDS011;9635;52.078;8.648;2023-05-27T01:44:44;20.42;;;6.47;;
19004;SDS011;9635;52.078;8.648;2023-05-27T01:49:48;21.40;;;6.82;;
19004;SDS011;9635;52.078;8.648;2023-05-27T01:54:52;14.93;;;5.72;;
19004;SDS011;9635;52.078;8.648;2023-05-27T01:59:57;18.20;;;5.68;;
19004;SDS011;9635;52.078;8.648;2023-05-27T02:05:00;16.42;;;6.07;;
19004;SDS011;9635;52.078;8.648;2023-05-27T02:10:06;20.35;;;6.13;;
19004;SDS011;9635;52.078;8.648;2023-05-27T02:15:10;19.10;;;6.30;;
19004;SDS011;9635;52.078;8.648;2023-05-27T02:20:13;23.80;;;6.20;;
19004;SDS011;9635;52.078;8.648;2023-05-27T02:25:17;19.75;;;6.32;;
19004;SDS011;9635;52.078;8.648;2023-05-27T02:30:21;17.15;;;5.97;;
19004;SDS011;9635;52.078;8.648;2023-05-27T02:35:24;21.30;;;6.30;;
19004;SDS011;9635;52.078;8.648;2023-05-27T02:40:28;19.63;;;6.20;;
19004;SDS011;9635;52.078;8.648;2023-05-27T02:45:31;28.98;;;7.95;;
19004;SDS011;9635;52.078;8.648;2023-05-27T02:50:34;23.85;;;7.45;;
19004;SDS011;9635;52.078;8.648;2023-05-27T02:55:38;19.88;;;6.40;;
19004;SDS011;9635;52.078;8.648;2023-05-27T03:00:41;21.73;;;6.50;;
19004;SDS011;9635;52.078;8.648;2023-05-27T03:05:44;19.10;;;5.60;;
19004;SDS011;9635;52.078;8.648;2023-05-27T03:10:50;14.80;;;5.22;;
19004;SDS011;9635;52.078;8.648;2023-05-27T03:15:53;14.10;;;4.80;;
19004;SDS011;9635;52.078;8.648;2023-05-27T03:20:56;18.40;;;5.55;;
19004;SDS011;9635;52.078;8.648;2023-05-27T03:26:02;14.88;;;6.03;;
19004;SDS011;9635;52.078;8.648;2023-05-27T03:31:06;15.63;;;5.72;;
19004;SDS011;9635;52.078;8.648;2023-05-27T03:36:18;16.70;;;5.45;;
19004;SDS011;9635;52.078;8.648;2023-05-27T03:41:24;18.33;;;7.03;;
19004;SDS011;9635;52.078;8.648;2023-05-27T03:46:28;22.88;;;6.38;;
19004;SDS011;9635;52.078;8.648;2023-05-27T03:51:32;15.27;;;5.55;;
19004;SDS011;9635;52.078;8.648;2023-05-27T03:56:37;23.20;;;6.82;;
19004;SDS011;9635;52.078;8.648;2023-05-27T04:01:40;20.20;;;6.05;;
19004;SDS011;9635;52.078;8.648;2023-05-27T04:06:43;20.00;;;6.07;;
19004;SDS011;9635;52.078;8.648;2023-05-27T04:11:47;26.98;;;7.15;;
19004;SDS011;9635;52.078;8.648;2023-05-27T04:16:50;17.27;;;6.40;;
19004;SDS011;9635;52.078;8.648;2023-05-27T04:21:54;15.40;;;5.18;;
19004;SDS011;9635;52.078;8.648;2023-05-27T04:27:00;16.80;;;5.50;;
19004;SDS011;9635;52.078;8.648;2023-05-27T04:32:04;19.67;;;6.05;;
19004;SDS011;9635;52.078;8.648;2023-05-27T04:37:07;24.30;;;7.78;;
19004;SDS011;9635;52.078;8.648;2023-05-27T04:42:13;17.90;;;7.25;;
19004;SDS011;9635;52.078;8.648;2023-05-27T04:47:19;19.63;;;6.75;;
19004;SDS011;9635;52.078;8.648;2023-05-27T04:52:23;17.08;;;7.10;;
19004;SDS011;9635;52.078;8.648;2023-05-27T04:57:28;17.55;;;6.47;;
19004;SDS011;9635;52.078;8.648;2023-05-27T05:02:33;19.60;;;6.82;;
19004;SDS011;9635;52.078;8.648;2023-05-27T05:07:44;20.90;;;6.65;;
19004;SDS011;9635;52.078;8.648;2023-05-27T05:12:50;17.27;;;5.50;;
19004;SDS011;9635;52.078;8.648;2023-05-27T05:17:53;19.60;;;6.50;;
19004;SDS011;9635;52.078;8.648;2023-05-27T05:23:00;17.95;;;6.40;;
19004;SDS011;9635;52.078;8.648;2023-05-27T05:28:06;22.95;;;7.10;;
19004;SDS011;9635;52.078;8.648;2023-05-27T05:33:11;22.35;;;7.95;;
19004;SDS011;9635;52.078;8.648;2023-05-27T05:38:14;26.88;;;6.72;;
19004;SDS011;9635;52.078;8.648;2023-05-27T05:43:19;19.75;;;7.25;;
19004;SDS011;9635;52.078;8.648;2023-05-27T05:48:24;27.25;;;9.38;;
19004;SDS011;9635;52.078;8.648;2023-05-27T05:53:27;21.73;;;7.68;;
19004;SDS011;9635;52.078;8.648;2023-05-27T05:58:32;24.42;;;7.47;;
19004;SDS011;9635;52.078;8.648;2023-05-27T06:03:35;22.27;;;7.82;;
19004;SDS011;9635;52.078;8.648;2023-05-27T06:08:41;19.20;;;6.93;;
19004;SDS011;9635;52.078;8.648;2023-05-27T06:13:50;18.67;;;6.97;;
19004;SDS011;9635;52.078;8.648;2023-05-27T06:18:54;19.98;;;7.28;;
19004;SDS011;9635;52.078;8.648;2023-05-27T06:23:57;26.58;;;6.50;;
19004;SDS011;9635;52.078;8.648;2023-05-27T06:29:07;24.40;;;6.45;;
19004;SDS011;9635;52.078;8.648;2023-05-27T06:34:10;27.88;;;7.05;;
19004;SDS011;9635;52.078;8.648;2023-05-27T06:39:13;21.10;;;6.50;;
19004;SDS011;9635;52.078;8.648;2023-05-27T06:44:18;17.27;;;6.65;;
19004;SDS011;9635;52.078;8.648;2023-05-27T06:49:32;17.17;;;5.75;;
19004;SDS011;9635;52.078;8.648;2023-05-27T06:54:38;17.48;;;6.43;;
19004;SDS011;9635;52.078;8.648;2023-05-27T07:05:15;19.77;;;5.35;;
19004;SDS011;9635;52.078;8.648;2023-05-27T07:10:18;21.52;;;6.38;;
19004;SDS011;9635;52.078;8.648;2023-05-27T07:15:24;17.40;;;5.63;;
19004;SDS011;9635;52.078;8.648;2023-05-27T07:20:29;17.98;;;6.68;;
19004;SDS011;9635;52.078;8.648;2023-05-27T07:25:37;19.77;;;6.18;;
19004;SDS011;9635;52.078;8.648;2023-05-27T07:30:42;20.33;;;6.00;;
19004;SDS011;9635;52.078;8.648;2023-05-27T07:35:45;19.38;;;5.88;;
19004;SDS011;9635;52.078;8.648;2023-05-27T07:40:48;22.70;;;5.45;;
19004;SDS011;9635;52.078;8.648;2023-05-27T07:45:54;17.83;;;5.90;;
19004;SDS011;9635;52.078;8.648;2023-05-27T07:50:57;19.73;;;6.55;;
19004;SDS011;9635;52.078;8.648;2023-05-27T07:56:00;16.10;;;5.18;;
19004;SDS011;9635;52.078;8.648;2023-05-27T08:01:04;19.73;;;6.07;;
19004;SDS011;9635;52.078;8.648;2023-05-27T08:06:08;19.52;;;6.63;;
19004;SDS011;9635;52.078;8.648;2023-05-27T08:11:31;17.48;;;5.50;;
19004;SDS011;9635;52.078;8.648;2023-05-27T08:16:42;14.13;;;4.95;;
19004;SDS011;9635;52.078;8.648;2023-05-27T08:21:56;14.02;;;4.20;;
19004;SDS011;9635;52.078;8.648;2023-05-27T08:27:41;14.68;;;4.38;;
19004;SDS011;9635;52.078;8.648;2023-05-27T08:37:54;16.02;;;5.03;;
19004;SDS011;9635;52.078;8.648;2023-05-27T08:43:01;12.52;;;4.75;;
19004;SDS011;9635;52.078;8.648;2023-05-27T08:48:07;14.02;;;4.70;;
19004;SDS011;9635;52.078;8.648;2023-05-27T08:53:12;14.85;;;5.28;;
19004;SDS011;9635;52.078;8.648;2023-05-27T08:58:17;16.27;;;5.05;;
19004;SDS011;9635;52.078;8.648;2023-05-27T09:03:24;11.93;;;5.80;;
19004;SDS011;9635;52.078;8.648;2023-05-27T09:08:30;14.25;;;5.18;;
19004;SDS011;9635;52.078;8.648;2023-05-27T09:13:52;15.38;;;5.25;;
19004;SDS011;9635;52.078;8.648;2023-05-27T09:18:58;12.35;;;5.13;;
19004;SDS011;9635;52.078;8.648;2023-05-27T09:24:01;19.33;;;6.38;;
19004;SDS011;9635;52.078;8.648;2023-05-27T09:29:05;16.05;;;5.40;;
19004;SDS011;9635;52.078;8.648;2023-05-27T09:34:10;12.02;;;4.85;;
19004;SDS011;9635;52.078;8.648;2023-05-27T09:39:15;15.00;;;4.95;;
19004;SDS011;9635;52.078;8.648;2023-05-27T09:44:19;18.33;;;5.28;;
19004;SDS011;9635;52.078;8.648;2023-05-27T09:49:23;11.13;;;4.38;;
19004;SDS011;9635;52.078;8.648;2023-05-27T09:54:29;11.90;;;3.97;;
19004;SDS011;9635;52.078;8.648;2023-05-27T09:59:32;11.30;;;4.50;;
19004;SDS011;9635;52.078;8.648;2023-05-27T10:04:37;11.68;;;3.97;;
19004;SDS011;9635;52.078;8.648;2023-05-27T10:09:40;10.98;;;4.03;;
19004;SDS011;9635;52.078;8.648;2023-05-27T10:14:43;8.90;;;3.25;;
19004;SDS011;9635;52.078;8.648;2023-05-27T10:19:55;7.90;;;3.22;;
19004;SDS011;9635;52.078;8.648;2023-05-27T10:25:06;9.73;;;3.50;;
19004;SDS011;9635;52.078;8.648;2023-05-27T10:30:13;7.07;;;3.28;;
19004;SDS011;9635;52.078;8.648;2023-05-27T10:35:18;11.73;;;3.25;;
19004;SDS011;9635;52.078;8.648;2023-05-27T10:40:24;8.63;;;2.88;;
19004;SDS011;9635;52.078;8.648;2023-05-27T10:45:31;10.52;;;3.33;;
19004;SDS011;9635;52.078;8.648;2023-05-27T10:50:36;13.38;;;3.60;;
19004;SDS011;9635;52.078;8.648;2023-05-27T10:55:39;5.00;;;2.85;;
19004;SDS011;9635;52.078;8.648;2023-05-27T11:00:44;8.50;;;3.47;;
19004;SDS011;9635;52.078;8.648;2023-05-27T11:05:57;7.93;;;3.60;;
19004;SDS011;9635;52.078;8.648;2023-05-27T11:11:02;10.52;;;3.75;;
19004;SDS011;9635;52.078;8.648;2023-05-27T11:16:08;9.30;;;3.38;;
19004;SDS011;9635;52.078;8.648;2023-05-27T11:21:13;6.90;;;3.53;;
19004;SDS011;9635;52.078;8.648;2023-05-27T11:26:18;7.32;;;3.25;;
19004;SDS011;9635;52.078;8.648;2023-05-27T11:31:26;7.88;;;3.30;;
19004;SDS011;9635;52.078;8.648;2023-05-27T11:36:31;9.65;;;3.30;;
19004;SDS011;9635;52.078;8.648;2023-05-27T11:41:34;6.65;;;3.22;;
19004;SDS011;9635;52.078;8.648;2023-05-27T11:46:38;9.30;;;3.20;;
19004;SDS011;9635;52.078;8.648;2023-05-27T11:51:45;8.30;;;2.90;;
19004;SDS011;9635;52.078;8.648;2023-05-27T11:56:49;10.25;;;3.60;;
19004;SDS011;9635;52.078;8.648;2023-05-27T12:01:53;10.63;;;3.38;;
19004;SDS011;9635;52.078;8.648;2023-05-27T12:06:57;8.75;;;3.63;;
19004;SDS011;9635;52.078;8.648;2023-05-27T12:12:09;11.90;;;3.65;;
19004;SDS011;9635;52.078;8.648;2023-05-27T12:17:12;12.38;;;3.63;;
19004;SDS011;9635;52.078;8.648;2023-05-27T12:22:16;7.13;;;3.53;;
19004;SDS011;9635;52.078;8.648;2023-05-27T12:27:19;8.57;;;3.35;;
19004;SDS011;9635;52.078;8.648;2023-05-27T12:32:22;9.40;;;3.03;;
19004;SDS011;9635;52.078;8.648;2023-05-27T12:37:27;8.88;;;3.78;;
19004;SDS011;9635;52.078;8.648;2023-05-27T12:42:30;7.15;;;2.75;;
19004;SDS011;9635;52.078;8.648;2023-05-27T12:47:34;7.20;;;2.83;;
19004;SDS011;9635;52.078;8.648;2023-05-27T12:52:38;11.10;;;2.92;;
19004;SDS011;9635;52.078;8.648;2023-05-27T12:57:47;9.38;;;3.08;;
19004;SDS011;9635;52.078;8.648;2023-05-27T13:02:51;7.78;;;4.32;;
19004;SDS011;9635;52.078;8.648;2023-05-27T13:07:56;8.73;;;3.05;;
19004;SDS011;9635;52.078;8.648;2023-05-27T13:13:00;6.15;;;2.78;;
19004;SDS011;9635;52.078;8.648;2023-05-27T13:18:04;5.65;;;3.28;;
19004;SDS011;9635;52.078;8.648;2023-05-27T13:23:09;7.88;;;3.13;;
19004;SDS011;9635;52.078;8.648;2023-05-27T13:28:12;6.43;;;2.92;;
19004;SDS011;9635;52.078;8.648;2023-05-27T13:33:15;10.43;;;3.42;;
19004;SDS011;9635;52.078;8.648;2023-05-27T13:38:20;6.85;;;3.00;;
19004;SDS011;9635;52.078;8.648;2023-05-27T13:43:22;6.40;;;3.10;;
19004;SDS011;9635;52.078;8.648;2023-05-27T13:48:25;9.20;;;3.28;;
19004;SDS011;9635;52.078;8.648;2023-05-27T13:53:30;9.00;;;3.78;;
19004;SDS011;9635;52.078;8.648;2023-05-27T13:58:32;11.73;;;3.63;;
19004;SDS011;9635;52.078;8.648;2023-05-27T14:03:38;10.77;;;3.70;;
19004;SDS011;9635;52.078;8.648;2023-05-27T14:08:42;8.85;;;3.80;;
19004;SDS011;9635;52.078;8.648;2023-05-27T14:13:45;7.57;;;3.28;;
19004;SDS011;9635;52.078;8.648;2023-05-27T14:18:49;7.00;;;3.28;;
19004;SDS011;9635;52.078;8.648;2023-05-27T14:23:53;9.60;;;3.33;;
19004;SDS011;9635;52.078;8.648;2023-05-27T14:28:58;8.60;;;4.20;;
19004;SDS011;9635;52.078;8.648;2023-05-27T14:34:01;7.60;;;3.58;;
19004;SDS011;9635;52.078;8.648;2023-05-27T14:39:05;8.95;;;3.97;;
19004;SDS011;9635;52.078;8.648;2023-05-27T14:44:09;5.47;;;3.13;;
19004;SDS011;9635;52.078;8.648;2023-05-27T14:49:12;10.18;;;3.90;;
19004;SDS011;9635;52.078;8.648;2023-05-27T14:54:16;7.03;;;3.70;;
19004;SDS011;9635;52.078;8.648;2023-05-27T14:59:19;12.38;;;3.85;;
19004;SDS011;9635;52.078;8.648;2023-05-27T15:04:23;7.63;;;4.05;;
19004;SDS011;9635;52.078;8.648;2023-05-27T15:09:28;13.65;;;4.38;;
19004;SDS011;9635;52.078;8.648;2023-05-27T15:14:31;8.00;;;3.63;;
19004;SDS011;9635;52.078;8.648;2023-05-27T15:19:33;8.60;;;3.78;;
19004;SDS011;9635;52.078;8.648;2023-05-27T15:24:38;7.95;;;3.63;;
19004;SDS011;9635;52.078;8.648;2023-05-27T15:29:41;8.90;;;4.55;;
19004;SDS011;9635;52.078;8.648;2023-05-27T15:34:44;9.05;;;3.95;;
19004;SDS011;9635;52.078;8.648;2023-05-27T15:39:48;8.30;;;4.03;;
19004;SDS011;9635;52.078;8.648;2023-05-27T15:44:51;7.85;;;4.03;;
19004;SDS011;9635;52.078;8.648;2023-05-27T15:49:54;7.93;;;3.50;;
19004;SDS011;9635;52.078;8.648;2023-05-27T15:54:58;11.25;;;4.20;;
19004;SDS011;9635;52.078;8.648;2023-05-27T16:00:01;13.02;;;4.10;;
19004;SDS011;9635;52.078;8.648;2023-05-27T16:05:11;10.98;;;4.13;;
19004;SDS011;9635;52.078;8.648;2023-05-27T16:10:18;9.20;;;3.40;;
19004;SDS011;9635;52.078;8.648;2023-05-27T16:15:21;8.60;;;3.72;;
19004;SDS011;9635;52.078;8.648;2023-05-27T16:20:24;7.68;;;3.65;;
19004;SDS011;9635;52.078;8.648;2023-05-27T16:25:28;8.68;;;3.63;;
19004;SDS011;9635;52.078;8.648;2023-05-27T16:30:31;8.43;;;4.00;;
19004;SDS011;9635;52.078;8.648;2023-05-27T16:35:34;8.45;;;3.33;;
19004;SDS011;9635;52.078;8.648;2023-05-27T16:40:38;9.80;;;3.65;;
19004;SDS011;9635;52.078;8.648;2023-05-27T16:45:41;9.73;;;3.88;;
19004;SDS011;9635;52.078;8.648;2023-05-27T16:50:44;8.73;;;3.83;;
19004;SDS011;9635;52.078;8.648;2023-05-27T16:55:48;7.78;;;3.58;;
19004;SDS011;9635;52.078;8.648;2023-05-27T17:00:54;6.30;;;3.40;;
19004;SDS011;9635;52.078;8.648;2023-05-27T17:05:58;10.27;;;3.53;;
19004;SDS011;9635;52.078;8.648;2023-05-27T17:11:02;7.75;;;3.55;;
19004;SDS011;9635;52.078;8.648;2023-05-27T17:16:05;6.32;;;3.53;;
19004;SDS011;9635;52.078;8.648;2023-05-27T17:21:10;9.25;;;3.75;;
19004;SDS011;9635;52.078;8.648;2023-05-27T17:26:15;6.53;;;3.03;;
19004;SDS011;9635;52.078;8.648;2023-05-27T17:31:19;6.82;;;3.38;;
19004;SDS011;9635;52.078;8.648;2023-05-27T17:36:22;7.53;;;3.28;;
19004;SDS011;9635;52.078;8.648;2023-05-27T17:41:26;7.63;;;3.50;;
19004;SDS011;9635;52.078;8.648;2023-05-27T17:46:29;7.00;;;3.40;;
19004;SDS011;9635;52.078;8.648;2023-05-27T17:51:33;6.85;;;3.53;;
19004;SDS011;9635;52.078;8.648;2023-05-27T17:56:38;9.13;;;3.53;;
19004;SDS011;9635;52.078;8.648;2023-05-27T18:01:41;8.68;;;3.42;;
19004;SDS011;9635;52.078;8.648;2023-05-27T18:06:44;7.55;;;3.13;;
19004;SDS011;9635;52.078;8.648;2023-05-27T18:11:48;7.75;;;3.95;;
19004;SDS011;9635;52.078;8.648;2023-05-27T18:16:51;5.22;;;3.50;;
19004;SDS011;9635;52.078;8.648;2023-05-27T18:21:54;9.07;;;3.80;;
19004;SDS011;9635;52.078;8.648;2023-05-27T18:26:58;6.30;;;3.67;;
19004;SDS011;9635;52.078;8.648;2023-05-27T18:32:02;9.18;;;4.07;;
19004;SDS011;9635;52.078;8.648;2023-05-27T18:37:05;10.52;;;3.38;;
19004;SDS011;9635;52.078;8.648;2023-05-27T18:42:09;7.88;;;3.35;;
19004;SDS011;9635;52.078;8.648;2023-05-27T18:47:12;11.13;;;3.65;;
19004;SDS011;9635;52.078;8.648;2023-05-27T18:52:15;11.32;;;3.92;;
19004;SDS011;9635;52.078;8.648;2023-05-27T18:57:21;6.05;;;3.28;;
19004;SDS011;9635;52.078;8.648;2023-05-27T19:02:24;6.10;;;3.30;;
19004;SDS011;9635;52.078;8.648;2023-05-27T19:07:27;8.35;;;3.83;;
19004;SDS011;9635;52.078;8.648;2023-05-27T19:12:32;9.25;;;3.60;;
19004;SDS011;9635;52.078;8.648;2023-05-27T19:17:35;8.80;;;3.95;;
19004;SDS011;9635;52.078;8.648;2023-05-27T19:22:38;7.20;;;3.45;;
19004;SDS011;9635;52.078;8.648;2023-05-27T19:27:43;8.63;;;4.22;;
19004;SDS011;9635;52.078;8.648;2023-05-27T19:32:45;7.40;;;3.90;;
19004;SDS011;9635;52.078;8.648;2023-05-27T19:37:49;6.50;;;3.72;;
19004;SDS011;9635;52.078;8.648;2023-05-27T19:42:53;8.15;;;3.92;;
19004;SDS011;9635;52.078;8.648;2023-05-27T19:47:57;9.55;;;4.50;;
19004;SDS011;9635;52.078;8.648;2023-05-27T19:53:00;13.90;;;4.32;;
19004;SDS011;9635;52.078;8.648;2023-05-27T19:58:05;7.80;;;3.88;;
19004;SDS011;9635;52.078;8.648;2023-05-27T20:03:08;9.55;;;4.25;;
19004;SDS011;9635;52.078;8.648;2023-05-27T20:08:12;9.68;;;4.13;;
19004;SDS011;9635;52.078;8.648;2023-05-27T20:13:16;11.35;;;4.35;;
19004;SDS011;9635;52.078;8.648;2023-05-27T20:18:19;7.50;;;4.05;;
19004;SDS011;9635;52.078;8.648;2023-05-27T20:23:22;12.40;;;4.70;;
19004;SDS011;9635;52.078;8.648;2023-05-27T20:28:26;8.52;;;3.95;;
19004;SDS011;9635;52.078;8.648;2023-05-27T20:33:29;9.82;;;4.18;;
19004;SDS011;9635;52.078;8.648;2023-05-27T20:38:32;7.88;;;4.43;;
19004;SDS011;9635;52.078;8.648;2023-05-27T20:43:36;10.48;;;5.47;;
19004;SDS011;9635;52.078;8.648;2023-05-27T20:48:39;11.18;;;4.93;;
19004;SDS011;9635;52.078;8.648;2023-05-27T20:53:43;9.95;;;4.95;;
19004;SDS011;9635;52.078;8.648;2023-05-27T20:58:47;8.95;;;4.70;;
19004;SDS011;9635;52.078;8.648;2023-05-27T21:03:50;6.93;;;4.53;;
19004;SDS011;9635;52.078;8.648;2023-05-27T21:08:53;7.25;;;4.40;;
19004;SDS011;9635;52.078;8.648;2023-05-27T21:13:58;9.00;;;5.13;;
19004;SDS011;9635;52.078;8.648;2023-05-27T21:19:01;9.18;;;5.38;;
19004;SDS011;9635;52.078;8.648;2023-05-27T21:24:04;12.52;;;5.32;;
19004;SDS011;9635;52.078;8.648;2023-05-27T21:29:09;12.57;;;5.78;;
19004;SDS011;9635;52.078;8.648;2023-05-27T21:34:13;10.82;;;5.60;;
19004;SDS011;9635;52.078;8.648;2023-05-27T21:39:16;10.77;;;5.22;;
19004;SDS011;9635;52.078;8.648;2023-05-27T21:44:21;6.80;;;4.95;;
19004;SDS011;9635;52.078;8.648;2023-05-27T21:49:24;10.57;;;5.22;;
19004;SDS011;9635;52.078;8.648;2023-05-27T21:54:27;14.07;;;4.57;;
19004;SDS011;9635;52.078;8.648;2023-05-27T21:59:31;11.23;;;5.07;;
19004;SDS011;9635;52.078;8.648;2023-05-27T22:04:34;9.93;;;4.28;;
19004;SDS011;9635;52.078;8.648;2023-05-27T22:09:37;10.35;;;4.78;;
19004;SDS011;9635;52.078;8.648;2023-05-27T22:14:42;9.50;;;4.40;;
19004;SDS011;9635;52.078;8.648;2023-05-27T22:19:45;10.88;;;5.18;;
19004;SDS011;9635;52.078;8.648;2023-05-27T22:24:48;18.13;;;9.23;;
19004;SDS011;9635;52.078;8.648;2023-05-27T22:29:53;19.35;;;9.65;;
19004;SDS011;9635;52.078;8.648;2023-05-27T22:34:55;14.93;;;9.75;;
19004;SDS011;9635;52.078;8.648;2023-05-27T22:39:58;15.00;;;8.60;;
19004;SDS011;9635;52.078;8.648;2023-05-27T22:45:03;15.50;;;8.23;;
19004;SDS011;9635;52.078;8.648;2023-05-27T22:50:06;13.52;;;6.57;;
19004;SDS011;9635;52.078;8.648;2023-05-27T22:55:10;15.80;;;6.63;;
19004;SDS011;9635;52.078;8.648;2023-05-27T23:00:14;14.38;;;7.10;;
19004;SDS011;9635;52.078;8.648;2023-05-27T23:05:17;10.15;;;6.78;;
19004;SDS011;9635;52.078;8.648;2023-05-27T23:10:21;15.13;;;7.82;;
19004;SDS011;9635;52.078;8.648;2023-05-27T23:15:27;13.68;;;6.35;;
19004;SDS011;9635;52.078;8.648;2023-05-27T23:20:31;9.73;;;5.65;;
19004;SDS011;9635;52.078;8.648;2023-05-27T23:25:34;14.35;;;6.15;;
19004;SDS011;9635;52.078;8.648;2023-05-27T23:30:38;14.32;;;6.43;;
19004;SDS011;9635;52.078;8.648;2023-05-27T23:35:41;11.73;;;5.97;;
19004;SDS011;9635;52.078;8.648;2023-05-27T23:40:44;15.20;;;6.68;;
19004;SDS011;9635;52.078;8.648;2023-05-27T23:45:48;9.55;;;5.57;;
19004;SDS011;9635;52.078;8.648;2023-05-27T23:50:52;14.70;;;6.25;;
19004;SDS011;9635;52.078;8.648;2023-05-27T23:55:55;12.93;;;6.13;;
